Wilson Lahn — 8PUO — position and weather

sailwx.info

Track history (hours):
 
Tides and Currents Weather Stations Pressure Air Temp Water Temp Dewpoint Dewpoint Depression Visibility Wind Speed Wind Dir Waves Ship Positions

Wilson Lahn

Last reported at 2016-May-06 10:33 UTC. Time now 2016-May-06 11:06 UTC.
Position N 54°37' W 001°09'.

Length 83 m; draft 3.9 m.

Type: Cargo ship. MMSI: 314259000.

Date/timePositionNaut miles runAvg speedWind from/ knotsBaromVisibWave heightAir tempDewpointWater temp
2016-May-06 10:33N 54°37' W 001°09'4 2.5
2016-May-06 09:06N 54°35' W 001°14'0 0.0
2016-May-06 08:33N 54°35' W 001°14'0 0.0
2016-May-06 06:27N 54°35' W 001°14'0 0.0
2016-May-06 04:12N 54°35' W 001°14'0 0.0
2016-May-06 03:27N 54°35' W 001°14'0 0.0
2016-May-06 02:30N 54°35' W 001°14'0 0.0
2016-May-06 01:18N 54°35' W 001°14'0 0.0
2016-May-06 00:30N 54°35' W 001°14'0 0.0
2016-May-05 14:24N 54°35' W 001°14'0 0.0
2016-May-05 12:12N 54°35' W 001°14'0 0.0
2016-May-05 11:30N 54°35' W 001°14'0 0.0
2016-May-05 10:30N 54°35' W 001°14'0 0.0
2016-May-05 07:30N 54°35' W 001°14'0 0.0
2016-May-05 06:33N 54°35' W 001°14'0 0.0
2016-May-05 05:24N 54°35' W 001°14'0 0.0
2016-May-05 04:33N 54°35' W 001°14'0 0.0
2016-May-05 03:24N 54°35' W 001°14'0 0.0
2016-May-05 02:12N 54°35' W 001°14'0 0.0
2016-May-05 01:24N 54°35' W 001°14'0 0.0
2016-May-04 19:28N 54°35' W 001°14'5 5.7
2016-May-04 18:33N 54°39' W 001°08'9 9.3
2016-May-04 17:33N 54°48' W 001°12'1110.9
2016-May-04 16:33N 54°58' W 001°19'1110.7
2016-May-04 15:33N 55°07' W 001°30'1 1.0
2016-May-04 14:31N 55°08' W 001°31'0 0.0
2016-May-04 13:31N 55°08' W 001°31'0 0.0
2016-May-04 12:31N 55°08' W 001°31'0 0.0
2016-May-04 11:31N 55°08' W 001°31'0 0.0
2016-May-04 10:31N 55°08' W 001°31'0 0.0
2016-May-04 09:31N 55°08' W 001°31'0 0.0
2016-May-04 08:31N 55°08' W 001°31'0 0.0
2016-May-04 07:31N 55°08' W 001°31'0 0.0
2016-May-04 06:31N 55°08' W 001°31'0 0.0
2016-May-04 05:31N 55°08' W 001°31'0 0.0
2016-May-04 04:31N 55°08' W 001°31'0 0.0
2016-May-04 03:31N 55°08' W 001°31'0 0.0
2016-May-04 02:31N 55°08' W 001°31'0 0.0
2016-May-04 01:31N 55°08' W 001°31'0 0.0
2016-May-04 00:31N 55°08' W 001°31'0 0.0
2016-May-03 23:31N 55°08' W 001°31'0 0.0
2016-May-03 22:31N 55°08' W 001°31'0 0.0
2016-May-03 21:31N 55°08' W 001°31'0 0.0
2016-May-03 20:31N 55°08' W 001°31'0 0.0
2016-May-03 19:31N 55°08' W 001°31'0 0.0
2016-May-03 18:31N 55°08' W 001°31'0 0.0
2016-May-03 17:31N 55°08' W 001°31'0 0.0
2016-May-03 16:31N 55°08' W 001°31'0 0.0
2016-May-03 15:31N 55°08' W 001°31'0 0.0
2016-May-03 14:31N 55°08' W 001°31'0 0.0
2016-May-03 13:31N 55°08' W 001°31'0 0.0
2016-May-03 12:31N 55°08' W 001°31'0 0.0
2016-May-03 11:31N 55°08' W 001°31'0 0.0
2016-May-03 10:31N 55°08' W 001°31'0 0.0
2016-May-03 09:31N 55°08' W 001°31'0 0.0
2016-May-03 08:31N 55°08' W 001°31'0 0.0
2016-May-03 07:31N 55°08' W 001°31'0 0.0
2016-May-03 06:31N 55°08' W 001°31'0 0.0
2016-May-03 05:31N 55°08' W 001°31'0 0.0
2016-May-03 04:31N 55°08' W 001°31'0 0.0
2016-May-03 03:31N 55°08' W 001°31'0 0.0
2016-May-03 02:31N 55°08' W 001°31'0 0.0
2016-May-03 01:31N 55°08' W 001°31'0 0.0
2016-May-03 00:31N 55°08' W 001°31'0 0.0
2016-May-02 23:31N 55°08' W 001°31'0 0.0
2016-May-02 22:31N 55°08' W 001°31'0 0.0
2016-May-02 21:31N 55°08' W 001°31'0 0.0
2016-May-02 20:31N 55°08' W 001°31'0 0.0
2016-May-02 19:31N 55°08' W 001°31'0 0.0
2016-May-02 18:31N 55°08' W 001°31'0 0.0
2016-May-02 17:31N 55°08' W 001°31'0 0.0
2016-May-02 16:31N 55°08' W 001°31'0 0.0
2016-May-02 15:31N 55°08' W 001°31'0 0.0
2016-May-02 14:31N 55°08' W 001°31'0 0.0
2016-May-02 13:31N 55°08' W 001°31'0 0.0
2016-May-02 12:31N 55°08' W 001°31'0 0.0
2016-May-02 11:31N 55°08' W 001°31'0 0.0
2016-May-02 10:31N 55°08' W 001°31'0 0.0
2016-May-02 09:31N 55°08' W 001°31'0 0.0
2016-May-02 08:28N 55°08' W 001°31'0 0.0
2016-May-02 07:31N 55°08' W 001°31'0 0.0
2016-May-02 06:31N 55°08' W 001°31'0 0.0
2016-May-02 05:31N 55°08' W 001°31'0 0.0
2016-May-02 04:31N 55°08' W 001°31'0 0.0
2016-May-02 03:31N 55°08' W 001°31'0 0.0
2016-May-02 02:31N 55°08' W 001°31'0 0.0
2016-May-02 01:31N 55°08' W 001°31'0 0.0
2016-May-02 00:31N 55°08' W 001°31'0 0.0
2016-May-01 23:31N 55°08' W 001°31'0 0.0
2016-May-01 22:28N 55°08' W 001°31'0 0.0
2016-May-01 21:31N 55°08' W 001°31'0 0.0
2016-May-01 20:31N 55°08' W 001°31'0 0.0
2016-May-01 19:31N 55°08' W 001°31'0 0.0
2016-May-01 18:31N 55°08' W 001°31'0 0.0
2016-May-01 17:31N 55°08' W 001°31'0 0.0
2016-May-01 16:31N 55°08' W 001°31'0 0.0
2016-May-01 15:31N 55°08' W 001°31'0 0.0
2016-May-01 14:31N 55°08' W 001°31'0 0.0
2016-May-01 13:31N 55°08' W 001°31'0 0.0
2016-May-01 12:31N 55°08' W 001°31'0 0.0
2016-May-01 11:31N 55°08' W 001°31'0 0.0
2016-May-01 10:31N 55°08' W 001°31'0 0.0
2016-May-01 09:31N 55°08' W 001°31'0 0.0
2016-May-01 08:31N 55°08' W 001°31'0 0.0
2016-May-01 07:31N 55°08' W 001°31'0 0.0
2016-May-01 06:31N 55°08' W 001°31'0 0.0
2016-May-01 05:28N 55°08' W 001°31'0 0.0
2016-May-01 04:31N 55°08' W 001°31'0 0.0
2016-May-01 03:31N 55°08' W 001°31'0 0.0
2016-May-01 02:31N 55°08' W 001°31'0 0.0
2016-May-01 01:31N 55°08' W 001°31'0 0.0
2016-May-01 00:31N 55°08' W 001°31'0 0.0
2016-Apr-30 23:31N 55°08' W 001°31'0 0.0
2016-Apr-30 22:31N 55°08' W 001°31'0 0.0
2016-Apr-30 21:31N 55°08' W 001°31'0 0.0
2016-Apr-30 20:31N 55°08' W 001°31'0 0.0
2016-Apr-30 19:31N 55°08' W 001°31'0 0.0
2016-Apr-30 18:31N 55°08' W 001°31'0 0.0
2016-Apr-30 17:31N 55°08' W 001°31'0 0.0
2016-Apr-30 16:31N 55°08' W 001°31'0 0.0
2016-Apr-30 15:31N 55°08' W 001°31'0 0.0
2016-Apr-30 14:31N 55°08' W 001°31'0 0.0
2016-Apr-30 13:31N 55°08' W 001°31'0 0.0
2016-Apr-30 12:25N 55°08' W 001°31'0 0.0
2016-Apr-30 11:31N 55°08' W 001°31'0 0.0
2016-Apr-30 10:31N 55°08' W 001°31'2 2.3
2016-Apr-30 09:33N 55°06' W 001°28'1 1.3
2016-Apr-30 08:31N 55°05' W 001°27'0 0.0
2016-Apr-30 07:31N 55°05' W 001°27'0 0.0
2016-Apr-30 06:31N 55°05' W 001°27'0 0.0
2016-Apr-30 05:28N 55°05' W 001°27'0 0.0
2016-Apr-30 04:31N 55°05' W 001°27'0 0.0
2016-Apr-30 03:31N 55°05' W 001°27'0 0.0
2016-Apr-30 02:31N 55°05' W 001°27'0 0.0
2016-Apr-30 01:31N 55°05' W 001°27'0 0.0
2016-Apr-30 00:31N 55°05' W 001°27'0 0.0
2016-Apr-29 23:31N 55°05' W 001°27'0 0.0
2016-Apr-29 22:31N 55°05' W 001°27'0 0.0
2016-Apr-29 21:31N 55°05' W 001°27'0 0.0
2016-Apr-29 20:31N 55°05' W 001°27'0 0.0
2016-Apr-29 19:31N 55°05' W 001°27'0 0.0
2016-Apr-29 18:31N 55°05' W 001°27'0 0.0
2016-Apr-29 17:31N 55°05' W 001°27'0 0.0
2016-Apr-29 16:31N 55°05' W 001°27'0 0.0
2016-Apr-29 15:31N 55°05' W 001°27'0 0.0
2016-Apr-29 14:31N 55°05' W 001°27'0 0.0
2016-Apr-29 13:31N 55°05' W 001°27'0 0.0
2016-Apr-29 12:31N 55°05' W 001°27'0 0.0
2016-Apr-29 11:31N 55°05' W 001°27'0 0.0
2016-Apr-29 10:31N 55°05' W 001°27'0 0.1
2016-Apr-29 09:31N 55°05' W 001°26'0 0.0
2016-Apr-29 08:31N 55°05' W 001°26'0 0.0
2016-Apr-29 07:31N 55°05' W 001°26'0 0.0
2016-Apr-29 06:31N 55°05' W 001°26'0 0.0
2016-Apr-29 05:31N 55°05' W 001°26'6 6.5
2016-Apr-29 04:33N 55°09' W 001°17'9 9.3
2016-Apr-29 03:33N 55°12' W 001°02'336 9.0
2016-Apr-27 14:08N 57°27' E 008°13'5 9.1
2016-Apr-27 13:33N 57°30' E 008°22'67 9.6
2016-Apr-27 06:32N 57°48' E 010°24'1111.2
2016-Apr-27 05:32N 57°48' E 010°45'1010.0
2016-Apr-27 04:33N 57°42' E 010°58'1010.3
2016-Apr-27 03:33N 57°35' E 011°12'1010.4
2016-Apr-27 02:33N 57°27' E 011°26'1010.4
2016-Apr-27 01:33N 57°18' E 011°33'1210.4
2016-Apr-27 00:23N 57°06' E 011°41'810.1
2016-Apr-26 23:33N 56°58' E 011°45'10 9.7
2016-Apr-26 22:33N 56°49' E 011°52'9 9.4
2016-Apr-26 21:34N 56°40' E 011°56'9 9.3
2016-Apr-26 20:33N 56°31' E 011°60'18 9.1
2016-Apr-26 18:33N 56°15' E 012°14'1312.6
2016-Apr-26 17:34N 56°07' E 012°32'1111.4
2016-Apr-26 16:33N 55°57' E 012°43'1010.2
2016-Apr-26 15:33N 55°47' E 012°43'1110.6
2016-Apr-26 14:33N 55°36' E 012°42'1010.2
2016-Apr-26 13:33N 55°26' E 012°42'9 8.8
2016-Apr-26 12:33N 55°18' E 012°44'9 9.3
2016-Apr-26 11:33N 55°15' E 013°00'9 8.7
2016-Apr-26 10:33N 55°16' E 013°16'  
Track history (hours):
 
Tides and Currents Weather Stations Pressure Air Temp Water Temp Dewpoint Dewpoint Depression Visibility Wind Speed Wind Dir Waves Ship Positions

Wilson Lahn

Last reported at 2016-May-06 10:33 UTC. Time now 2016-May-06 11:06 UTC.
Position N 54°37' W 001°09'.

Length 83 m; draft 3.9 m.

Type: Cargo ship. MMSI: 314259000.

Date/timePositionNaut miles runAvg speedWind from/ knotsBaromVisibWave heightAir tempDewpointWater temp
2016-May-06 10:33N 54°37' W 001°09'4 2.5
2016-May-06 09:06N 54°35' W 001°14'0 0.0
2016-May-06 08:33N 54°35' W 001°14'0 0.0
2016-May-06 06:27N 54°35' W 001°14'0 0.0
2016-May-06 04:12N 54°35' W 001°14'0 0.0
2016-May-06 03:27N 54°35' W 001°14'0 0.0
2016-May-06 02:30N 54°35' W 001°14'0 0.0
2016-May-06 01:18N 54°35' W 001°14'0 0.0
2016-May-06 00:30N 54°35' W 001°14'0 0.0
2016-May-05 14:24N 54°35' W 001°14'0 0.0
2016-May-05 12:12N 54°35' W 001°14'0 0.0
2016-May-05 11:30N 54°35' W 001°14'0 0.0
2016-May-05 10:30N 54°35' W 001°14'0 0.0
2016-May-05 07:30N 54°35' W 001°14'0 0.0
2016-May-05 06:33N 54°35' W 001°14'0 0.0
2016-May-05 05:24N 54°35' W 001°14'0 0.0
2016-May-05 04:33N 54°35' W 001°14'0 0.0
2016-May-05 03:24N 54°35' W 001°14'0 0.0
2016-May-05 02:12N 54°35' W 001°14'0 0.0
2016-May-05 01:24N 54°35' W 001°14'0 0.0
2016-May-04 19:28N 54°35' W 001°14'5 5.7
2016-May-04 18:33N 54°39' W 001°08'9 9.3
2016-May-04 17:33N 54°48' W 001°12'1110.9
2016-May-04 16:33N 54°58' W 001°19'1110.7
2016-May-04 15:33N 55°07' W 001°30'1 1.0
2016-May-04 14:31N 55°08' W 001°31'0 0.0
2016-May-04 13:31N 55°08' W 001°31'0 0.0
2016-May-04 12:31N 55°08' W 001°31'0 0.0
2016-May-04 11:31N 55°08' W 001°31'0 0.0
2016-May-04 10:31N 55°08' W 001°31'0 0.0
2016-May-04 09:31N 55°08' W 001°31'0 0.0
2016-May-04 08:31N 55°08' W 001°31'0 0.0
2016-May-04 07:31N 55°08' W 001°31'0 0.0
2016-May-04 06:31N 55°08' W 001°31'0 0.0
2016-May-04 05:31N 55°08' W 001°31'0 0.0
2016-May-04 04:31N 55°08' W 001°31'0 0.0
2016-May-04 03:31N 55°08' W 001°31'0 0.0
2016-May-04 02:31N 55°08' W 001°31'0 0.0
2016-May-04 01:31N 55°08' W 001°31'0 0.0
2016-May-04 00:31N 55°08' W 001°31'0 0.0
2016-May-03 23:31N 55°08' W 001°31'0 0.0
2016-May-03 22:31N 55°08' W 001°31'0 0.0
2016-May-03 21:31N 55°08' W 001°31'0 0.0
2016-May-03 20:31N 55°08' W 001°31'0 0.0
2016-May-03 19:31N 55°08' W 001°31'0 0.0
2016-May-03 18:31N 55°08' W 001°31'0 0.0
2016-May-03 17:31N 55°08' W 001°31'0 0.0
2016-May-03 16:31N 55°08' W 001°31'0 0.0
2016-May-03 15:31N 55°08' W 001°31'0 0.0
2016-May-03 14:31N 55°08' W 001°31'0 0.0
2016-May-03 13:31N 55°08' W 001°31'0 0.0
2016-May-03 12:31N 55°08' W 001°31'0 0.0
2016-May-03 11:31N 55°08' W 001°31'0 0.0
2016-May-03 10:31N 55°08' W 001°31'0 0.0
2016-May-03 09:31N 55°08' W 001°31'0 0.0
2016-May-03 08:31N 55°08' W 001°31'0 0.0
2016-May-03 07:31N 55°08' W 001°31'0 0.0
2016-May-03 06:31N 55°08' W 001°31'0 0.0
2016-May-03 05:31N 55°08' W 001°31'0 0.0
2016-May-03 04:31N 55°08' W 001°31'0 0.0
2016-May-03 03:31N 55°08' W 001°31'0 0.0
2016-May-03 02:31N 55°08' W 001°31'0 0.0
2016-May-03 01:31N 55°08' W 001°31'0 0.0
2016-May-03 00:31N 55°08' W 001°31'0 0.0
2016-May-02 23:31N 55°08' W 001°31'0 0.0
2016-May-02 22:31N 55°08' W 001°31'0 0.0
2016-May-02 21:31N 55°08' W 001°31'0 0.0
2016-May-02 20:31N 55°08' W 001°31'0 0.0
2016-May-02 19:31N 55°08' W 001°31'0 0.0
2016-May-02 18:31N 55°08' W 001°31'0 0.0
2016-May-02 17:31N 55°08' W 001°31'0 0.0
2016-May-02 16:31N 55°08' W 001°31'0 0.0
2016-May-02 15:31N 55°08' W 001°31'0 0.0
2016-May-02 14:31N 55°08' W 001°31'0 0.0
2016-May-02 13:31N 55°08' W 001°31'0 0.0
2016-May-02 12:31N 55°08' W 001°31'0 0.0
2016-May-02 11:31N 55°08' W 001°31'0 0.0
2016-May-02 10:31N 55°08' W 001°31'0 0.0
2016-May-02 09:31N 55°08' W 001°31'0 0.0
2016-May-02 08:28N 55°08' W 001°31'0 0.0
2016-May-02 07:31N 55°08' W 001°31'0 0.0
2016-May-02 06:31N 55°08' W 001°31'0 0.0
2016-May-02 05:31N 55°08' W 001°31'0 0.0
2016-May-02 04:31N 55°08' W 001°31'0 0.0
2016-May-02 03:31N 55°08' W 001°31'0 0.0
2016-May-02 02:31N 55°08' W 001°31'0 0.0
2016-May-02 01:31N 55°08' W 001°31'0 0.0
2016-May-02 00:31N 55°08' W 001°31'0 0.0
2016-May-01 23:31N 55°08' W 001°31'0 0.0
2016-May-01 22:28N 55°08' W 001°31'0 0.0
2016-May-01 21:31N 55°08' W 001°31'0 0.0
2016-May-01 20:31N 55°08' W 001°31'0 0.0
2016-May-01 19:31N 55°08' W 001°31'0 0.0
2016-May-01 18:31N 55°08' W 001°31'0 0.0
2016-May-01 17:31N 55°08' W 001°31'0 0.0
2016-May-01 16:31N 55°08' W 001°31'0 0.0
2016-May-01 15:31N 55°08' W 001°31'0 0.0
2016-May-01 14:31N 55°08' W 001°31'0 0.0
2016-May-01 13:31N 55°08' W 001°31'0 0.0
2016-May-01 12:31N 55°08' W 001°31'0 0.0
2016-May-01 11:31N 55°08' W 001°31'0 0.0
2016-May-01 10:31N 55°08' W 001°31'0 0.0
2016-May-01 09:31N 55°08' W 001°31'0 0.0
2016-May-01 08:31N 55°08' W 001°31'0 0.0
2016-May-01 07:31N 55°08' W 001°31'0 0.0
2016-May-01 06:31N 55°08' W 001°31'0 0.0
2016-May-01 05:28N 55°08' W 001°31'0 0.0
2016-May-01 04:31N 55°08' W 001°31'0 0.0
2016-May-01 03:31N 55°08' W 001°31'0 0.0
2016-May-01 02:31N 55°08' W 001°31'0 0.0
2016-May-01 01:31N 55°08' W 001°31'0 0.0
2016-May-01 00:31N 55°08' W 001°31'0 0.0
2016-Apr-30 23:31N 55°08' W 001°31'0 0.0
2016-Apr-30 22:31N 55°08' W 001°31'0 0.0
2016-Apr-30 21:31N 55°08' W 001°31'0 0.0
2016-Apr-30 20:31N 55°08' W 001°31'0 0.0
2016-Apr-30 19:31N 55°08' W 001°31'0 0.0
2016-Apr-30 18:31N 55°08' W 001°31'0 0.0
2016-Apr-30 17:31N 55°08' W 001°31'0 0.0
2016-Apr-30 16:31N 55°08' W 001°31'0 0.0
2016-Apr-30 15:31N 55°08' W 001°31'0 0.0
2016-Apr-30 14:31N 55°08' W 001°31'0 0.0
2016-Apr-30 13:31N 55°08' W 001°31'0 0.0
2016-Apr-30 12:25N 55°08' W 001°31'0 0.0
2016-Apr-30 11:31N 55°08' W 001°31'0 0.0
2016-Apr-30 10:31N 55°08' W 001°31'2 2.3
2016-Apr-30 09:33N 55°06' W 001°28'1 1.3
2016-Apr-30 08:31N 55°05' W 001°27'0 0.0
2016-Apr-30 07:31N 55°05' W 001°27'0 0.0
2016-Apr-30 06:31N 55°05' W 001°27'0 0.0
2016-Apr-30 05:28N 55°05' W 001°27'0 0.0
2016-Apr-30 04:31N 55°05' W 001°27'0 0.0
2016-Apr-30 03:31N 55°05' W 001°27'0 0.0
2016-Apr-30 02:31N 55°05' W 001°27'0 0.0
2016-Apr-30 01:31N 55°05' W 001°27'0 0.0
2016-Apr-30 00:31N 55°05' W 001°27'0 0.0
2016-Apr-29 23:31N 55°05' W 001°27'0 0.0
2016-Apr-29 22:31N 55°05' W 001°27'0 0.0
2016-Apr-29 21:31N 55°05' W 001°27'0 0.0
2016-Apr-29 20:31N 55°05' W 001°27'0 0.0
2016-Apr-29 19:31N 55°05' W 001°27'0 0.0
2016-Apr-29 18:31N 55°05' W 001°27'0 0.0
2016-Apr-29 17:31N 55°05' W 001°27'0 0.0
2016-Apr-29 16:31N 55°05' W 001°27'0 0.0
2016-Apr-29 15:31N 55°05' W 001°27'0 0.0
2016-Apr-29 14:31N 55°05' W 001°27'0 0.0
2016-Apr-29 13:31N 55°05' W 001°27'0 0.0
2016-Apr-29 12:31N 55°05' W 001°27'0 0.0
2016-Apr-29 11:31N 55°05' W 001°27'0 0.0
2016-Apr-29 10:31N 55°05' W 001°27'0 0.1
2016-Apr-29 09:31N 55°05' W 001°26'0 0.0
2016-Apr-29 08:31N 55°05' W 001°26'0 0.0
2016-Apr-29 07:31N 55°05' W 001°26'0 0.0
2016-Apr-29 06:31N 55°05' W 001°26'0 0.0
2016-Apr-29 05:31N 55°05' W 001°26'6 6.5
2016-Apr-29 04:33N 55°09' W 001°17'9 9.3
2016-Apr-29 03:33N 55°12' W 001°02'336 9.0
2016-Apr-27 14:08N 57°27' E 008°13'5 9.1
2016-Apr-27 13:33N 57°30' E 008°22'67 9.6
2016-Apr-27 06:32N 57°48' E 010°24'1111.2
2016-Apr-27 05:32N 57°48' E 010°45'1010.0
2016-Apr-27 04:33N 57°42' E 010°58'1010.3
2016-Apr-27 03:33N 57°35' E 011°12'1010.4
2016-Apr-27 02:33N 57°27' E 011°26'1010.4
2016-Apr-27 01:33N 57°18' E 011°33'1210.4
2016-Apr-27 00:23N 57°06' E 011°41'810.1
2016-Apr-26 23:33N 56°58' E 011°45'10 9.7
2016-Apr-26 22:33N 56°49' E 011°52'9 9.4
2016-Apr-26 21:34N 56°40' E 011°56'9 9.3
2016-Apr-26 20:33N 56°31' E 011°60'18 9.1
2016-Apr-26 18:33N 56°15' E 012°14'1312.6
2016-Apr-26 17:34N 56°07' E 012°32'1111.4
2016-Apr-26 16:33N 55°57' E 012°43'1010.2
2016-Apr-26 15:33N 55°47' E 012°43'1110.6
2016-Apr-26 14:33N 55°36' E 012°42'1010.2
2016-Apr-26 13:33N 55°26' E 012°42'9 8.8
2016-Apr-26 12:33N 55°18' E 012°44'9 9.3
2016-Apr-26 11:33N 55°15' E 013°00'9 8.7
2016-Apr-26 10:33N 55°16' E 013°16'  

Dump ship's entire track history